Time;durP1;ratioP1;P1;durP2;ratioP2;P2;SDS_P1;SDS_P2;PMS_P1;PMS_P2;Temp;Humidity;BMP_temperature;BMP_pressure;BME280_temperature;BME280_humidity;BME280_pressure;Samples;Min_cycle;Max_cycle;Signal;HPM_P1;HPM_P2
2023/01/19 00:02:19;;;;;;;0.70;0.70;;;2.30;99.90;;;;;;4989682;28;20049;-82
2023/01/19 00:04:44;;;;;;;0.70;0.70;;;2.30;99.90;;;;;;4955864;28;20050;-84
2023/01/19 00:07:10;;;;;;;0.70;0.70;;;2.30;99.90;;;;;;5007069;28;20100;-83
2023/01/19 00:09:37;;;;;;;0.57;0.57;;;2.20;99.90;;;;;;4975764;28;20038;-82
2023/01/19 00:12:03;;;;;;;0.80;0.80;;;2.20;99.90;;;;;;4971785;28;20038;-80
2023/01/19 00:14:29;;;;;;;0.60;0.60;;;2.20;99.90;;;;;;4989204;28;20108;-83
2023/01/19 00:16:55;;;;;;;0.80;0.80;;;2.20;99.90;;;;;;4989908;28;20038;-81
2023/01/19 00:19:21;;;;;;;0.70;0.70;;;2.40;99.90;;;;;;4973293;28;20073;-83
2023/01/19 00:21:46;;;;;;;0.70;0.70;;;2.30;99.90;;;;;;4991945;28;20128;-80
2023/01/19 00:24:12;;;;;;;0.70;0.70;;;2.20;99.90;;;;;;4971788;28;20555;-81
2023/01/19 00:26:41;;;;;;;0.80;0.80;;;2.20;99.90;;;;;;4990269;28;20050;-82
2023/01/19 00:29:09;;;;;;;0.70;0.70;;;2.10;99.90;;;;;;4993119;28;20494;-81
2023/01/19 00:31:55;;;;;;;0.65;0.65;;;2.10;99.90;;;;;;4986561;28;20050;-82
2023/01/19 00:34:21;;;;;;;0.70;0.70;;;2.10;99.90;;;;;;4989772;28;20129;-78
2023/01/19 00:36:46;;;;;;;0.70;0.70;;;2.10;99.90;;;;;;4989179;28;20117;-78
2023/01/19 00:39:12;;;;;;;0.60;0.60;;;2.20;99.90;;;;;;4989591;28;20095;-79
2023/01/19 00:44:22;;;;;;;0.65;0.65;;;2.20;99.90;;;;;;4987854;28;20049;-81
2023/01/19 00:46:47;;;;;;;0.70;0.70;;;2.00;99.90;;;;;;4987868;28;20042;-82
2023/01/19 00:49:13;;;;;;;0.70;0.70;;;1.90;99.90;;;;;;4987867;28;20054;-80
2023/01/19 00:51:39;;;;;;;0.70;0.70;;;1.90;99.90;;;;;;4987466;28;20128;-80
2023/01/19 00:54:09;;;;;;;0.52;0.52;;;1.90;99.90;;;;;;4988274;28;20078;-79
2023/01/19 00:56:35;;;;;;;0.70;0.70;;;1.90;99.90;;;;;;4986692;28;21216;-80
2023/01/19 00:59:01;;;;;;;0.70;0.70;;;2.00;99.90;;;;;;4988335;28;20369;-79
2023/01/19 01:01:27;;;;;;;0.70;0.70;;;2.00;99.90;;;;;;4987095;28;20050;-82
2023/01/19 01:03:52;;;;;;;0.80;0.80;;;2.10;99.90;;;;;;4986566;28;20400;-81
2023/01/19 01:06:19;;;;;;;0.70;0.70;;;2.10;99.90;;;;;;4988072;28;20039;-79
2023/01/19 01:08:45;;;;;;;0.70;0.70;;;2.20;99.90;;;;;;4990259;28;20157;-80
2023/01/19 01:11:11;;;;;;;0.60;0.60;;;2.60;99.90;;;;;;4986927;28;20122;-81
2023/01/19 01:13:36;;;;;;;0.63;0.63;;;2.20;99.90;;;;;;4989199;28;20085;-82
2023/01/19 01:16:02;;;;;;;0.70;0.70;;;2.20;99.90;;;;;;4972435;28;20041;-82
2023/01/19 01:18:28;;;;;;;0.57;0.57;;;2.20;99.90;;;;;;4984607;28;20049;-80
2023/01/19 01:21:05;;;;;;;0.80;0.80;;;2.20;99.90;;;;;;5001945;28;20035;-81
2023/01/19 01:23:32;;;;;;;0.60;0.60;;;2.20;99.90;;;;;;4972204;28;20078;-82
2023/01/19 01:25:58;;;;;;;0.70;0.70;;;2.30;99.90;;;;;;4982646;28;20081;-81
2023/01/19 01:28:24;;;;;;;0.70;0.70;;;2.80;99.90;;;;;;4969648;28;20494;-81
2023/01/19 01:30:54;;;;;;;0.77;0.77;;;2.40;99.90;;;;;;4985768;28;20050;-83
2023/01/19 01:33:19;;;;;;;0.70;0.70;;;2.50;99.90;;;;;;4987692;28;20867;-80
2023/01/19 01:35:46;;;;;;;0.60;0.60;;;2.40;99.90;;;;;;4987666;28;20038;-79
2023/01/19 01:38:11;;;;;;;;;;;2.40;99.90;;;;;;4989143;28;20131;-83
2023/01/19 01:40:40;;;;;;;0.57;0.57;;;2.40;99.90;;;;;;4988739;28;19957;-79
2023/01/19 01:43:14;;;;;;;0.70;0.70;;;2.80;99.90;;;;;;4987819;28;20057;-79
2023/01/19 01:45:40;;;;;;;0.70;0.70;;;2.40;99.90;;;;;;4985170;28;20054;-82
2023/01/19 01:48:17;;;;;;;0.63;0.63;;;2.40;99.90;;;;;;4986384;28;20061;-82
2023/01/19 01:53:35;;;;;;;0.68;0.68;;;2.50;99.90;;;;;;4983400;28;20074;-78
2023/01/19 01:56:06;;;;;;;0.70;0.70;;;2.50;99.90;;;;;;4995067;28;20109;-79
2023/01/19 01:58:32;;;;;;;0.60;0.60;;;2.60;99.90;;;;;;4989275;28;20046;-81
2023/01/19 02:03:42;;;;;;;0.60;0.60;;;3.00;99.90;;;;;;4985215;28;20048;-81
2023/01/19 02:06:10;;;;;;;0.60;0.60;;;2.70;99.90;;;;;;4987409;28;20038;-81
2023/01/19 02:14:18;;;;;;;0.60;0.60;;;2.70;99.90;;;;;;5002920;28;19932;-79
2023/01/19 02:16:45;;;;;;;0.70;0.70;;;2.70;99.90;;;;;;4988972;28;20376;-81
2023/01/19 02:19:15;;;;;;;0.60;0.60;;;2.60;99.90;;;;;;4972254;28;20393;-82
2023/01/19 02:21:52;;;;;;;0.70;0.70;;;2.60;99.90;;;;;;4986230;28;20055;-80
2023/01/19 02:24:18;;;;;;;;;;;2.50;99.90;;;;;;4970355;28;20054;-80
2023/01/19 02:26:46;;;;;;;0.70;0.70;;;2.80;99.90;;;;;;4985660;28;19928;-81
2023/01/19 02:29:18;;;;;;;0.60;0.60;;;2.40;99.90;;;;;;4986880;28;20050;-82
2023/01/19 02:31:45;;;;;;;0.70;0.70;;;3.00;99.90;;;;;;4986249;28;20057;-82
2023/01/19 02:34:14;;;;;;;0.60;0.60;;;2.40;99.90;;;;;;4987611;28;20045;-82
2023/01/19 02:37:05;;;;;;;0.63;0.63;;;3.20;99.90;;;;;;4987872;28;20050;-82
2023/01/19 02:39:53;;;;;;;0.70;0.70;;;2.40;99.90;;;;;;4972239;28;20084;-81
2023/01/19 02:42:44;;;;;;;0.60;0.60;;;2.30;99.90;;;;;;4985002;28;20515;-84
2023/01/19 02:45:13;;;;;;;0.63;0.63;;;2.30;99.90;;;;;;4985513;28;20050;-83
2023/01/19 02:47:48;;;;;;;0.70;0.70;;;2.30;99.90;;;;;;4989190;28;20046;-84
2023/01/19 02:50:40;;;;;;;0.60;0.60;;;2.30;99.90;;;;;;5008233;28;20047;-82
2023/01/19 02:53:31;;;;;;;0.68;0.68;;;2.30;99.90;;;;;;5005334;28;20073;-80
2023/01/19 02:56:35;;;;;;;0.60;0.60;;;2.30;99.90;;;;;;4992655;28;20169;-82
2023/01/19 02:59:26;;;;;;;0.80;0.80;;;2.30;99.90;;;;;;4990954;28;21276;-79
2023/01/19 03:02:00;;;;;;;0.70;0.70;;;2.40;99.90;;;;;;4991076;28;20042;-84
2023/01/19 03:04:48;;;;;;;0.63;0.63;;;2.40;99.90;;;;;;4969262;28;20134;-84
2023/01/19 03:07:29;;;;;;;0.60;0.60;;;2.30;99.90;;;;;;4990291;28;20038;-81
2023/01/19 03:10:06;;;;;;;0.60;0.60;;;2.30;99.90;;;;;;4990389;28;20073;-84
2023/01/19 03:13:09;;;;;;;0.60;0.60;;;2.30;99.90;;;;;;4990725;28;20046;-82
2023/01/19 03:15:44;;;;;;;0.80;0.80;;;2.40;99.90;;;;;;4991038;28;20038;-82
2023/01/19 03:18:13;;;;;;;0.68;0.68;;;2.30;99.90;;;;;;4992432;28;20050;-83
2023/01/19 03:20:40;;;;;;;0.55;0.55;;;2.40;99.90;;;;;;4973362;28;20049;-82
2023/01/19 03:23:09;;;;;;;0.70;0.70;;;2.20;99.90;;;;;;4990199;28;20046;-82
2023/01/19 03:25:38;;;;;;;0.70;0.70;;;2.20;99.90;;;;;;4989993;28;20121;-83
2023/01/19 03:28:04;;;;;;;0.60;0.60;;;2.10;99.90;;;;;;4986776;28;20113;-82
2023/01/19 03:30:38;;;;;;;0.80;0.80;;;2.10;99.90;;;;;;4991117;28;20696;-82
2023/01/19 03:33:37;;;;;;;0.68;0.68;;;2.10;99.90;;;;;;4989714;28;20190;-82
2023/01/19 03:36:10;;;;;;;0.60;0.60;;;2.10;99.90;;;;;;4980196;28;20074;-83
2023/01/19 03:38:38;;;;;;;0.60;0.60;;;2.10;99.90;;;;;;4990841;28;20128;-83
2023/01/19 03:41:10;;;;;;;0.70;0.70;;;2.00;99.90;;;;;;4990482;28;20408;-83
2023/01/19 03:43:38;;;;;;;0.63;0.63;;;3.50;99.90;;;;;;4991156;28;20053;-81
2023/01/19 03:46:04;;;;;;;0.70;0.70;;;2.10;99.90;;;;;;4972873;28;20404;-84
2023/01/19 03:48:32;;;;;;;0.70;0.70;;;2.10;99.90;;;;;;4988748;28;20089;-82
2023/01/19 03:51:06;;;;;;;0.60;0.60;;;2.10;99.90;;;;;;4978108;28;20050;-83
2023/01/19 03:53:32;;;;;;;0.60;0.60;;;2.10;99.90;;;;;;4974924;28;20125;-83
2023/01/19 03:55:58;;;;;;;0.70;0.70;;;2.70;99.90;;;;;;4989222;28;20976;-80
2023/01/19 03:58:24;;;;;;;0.73;0.73;;;2.30;99.90;;;;;;4989035;28;20044;-79
2023/01/19 04:00:49;;;;;;;0.60;0.60;;;2.30;99.90;;;;;;4988546;28;20143;-83
2023/01/19 04:03:17;;;;;;;0.70;0.70;;;2.10;99.90;;;;;;4988681;28;20046;-83
2023/01/19 04:05:43;;;;;;;0.70;0.70;;;3.50;99.90;;;;;;4990455;28;20042;-82
2023/01/19 04:08:08;;;;;;;;;;;2.20;99.90;;;;;;4990205;28;20144;-81
2023/01/19 04:10:34;;;;;;;0.50;0.50;;;2.20;99.90;;;;;;4988686;28;20017;-83
2023/01/19 04:13:01;;;;;;;0.70;0.70;;;2.20;99.90;;;;;;4987474;28;20058;-80
2023/01/19 04:15:28;;;;;;;0.70;0.70;;;2.20;99.90;;;;;;4986404;28;20031;-81
2023/01/19 04:17:57;;;;;;;0.70;0.70;;;2.20;99.90;;;;;;5003539;28;20038;-82
2023/01/19 04:20:23;;;;;;;0.55;0.55;;;2.40;99.90;;;;;;4988289;28;20046;-80
2023/01/19 04:22:49;;;;;;;0.60;0.60;;;2.20;99.90;;;;;;4971972;28;20046;-79
2023/01/19 04:25:15;;;;;;;0.60;0.60;;;2.40;99.90;;;;;;4982723;28;20042;-80
2023/01/19 04:27:40;;;;;;;;;;;2.10;99.90;;;;;;4987947;28;20184;-82
2023/01/19 04:30:08;;;;;;;0.60;0.60;;;2.10;99.90;;;;;;4989156;28;20008;-82
2023/01/19 04:32:34;;;;;;;0.60;0.60;;;2.10;99.90;;;;;;4973005;28;20070;-80
2023/01/19 04:35:00;;;;;;;0.70;0.70;;;2.10;99.90;;;;;;4989590;28;20090;-82
2023/01/19 04:37:26;;;;;;;0.50;0.50;;;2.00;99.90;;;;;;4971760;28;20038;-84
2023/01/19 04:39:52;;;;;;;0.70;0.70;;;2.00;99.90;;;;;;4990433;28;20034;-83
2023/01/19 04:42:18;;;;;;;0.60;0.60;;;1.90;99.90;;;;;;4989047;28;20173;-80
2023/01/19 04:44:43;;;;;;;0.60;0.60;;;1.90;99.90;;;;;;4986151;28;20039;-83
2023/01/19 04:47:10;;;;;;;0.65;0.65;;;1.90;99.90;;;;;;4968276;28;20484;-81
2023/01/19 04:49:38;;;;;;;0.60;0.60;;;1.90;99.90;;;;;;4985508;28;20057;-83
2023/01/19 04:52:05;;;;;;;0.70;0.70;;;1.90;99.90;;;;;;4989344;28;20066;-82
2023/01/19 04:54:31;;;;;;;0.70;0.70;;;1.90;99.90;;;;;;4992866;28;20459;-79
2023/01/19 04:56:56;;;;;;;0.70;0.70;;;1.90;99.90;;;;;;4974801;28;20078;-83
2023/01/19 04:59:22;;;;;;;0.68;0.68;;;1.90;99.90;;;;;;4986639;28;20444;-80
2023/01/19 05:01:48;;;;;;;0.70;0.70;;;1.90;99.90;;;;;;4993658;28;20056;-84
2023/01/19 05:04:14;;;;;;;0.70;0.70;;;1.90;99.90;;;;;;4986750;28;20050;-80
2023/01/19 05:06:40;;;;;;;0.70;0.70;;;1.90;99.90;;;;;;4988949;28;20054;-82
2023/01/19 05:09:07;;;;;;;0.77;0.77;;;2.00;99.90;;;;;;4989296;28;20061;-81
2023/01/19 05:11:34;;;;;;;0.50;0.50;;;1.90;99.90;;;;;;4986656;28;20054;-82
2023/01/19 05:14:03;;;;;;;0.60;0.60;;;1.90;99.90;;;;;;4989873;28;20109;-81
2023/01/19 05:16:28;;;;;;;0.63;0.63;;;1.90;99.90;;;;;;4987587;28;20210;-81
2023/01/19 05:18:54;;;;;;;0.63;0.63;;;1.80;99.90;;;;;;4994873;28;20050;-83
2023/01/19 05:21:19;;;;;;;0.63;0.63;;;2.70;99.90;;;;;;4989207;28;20129;-84
2023/01/19 05:23:45;;;;;;;0.60;0.60;;;1.90;99.90;;;;;;4990192;28;20503;-84
2023/01/19 05:26:11;;;;;;;0.50;0.50;;;2.10;99.90;;;;;;4966997;28;20053;-82
2023/01/19 05:28:37;;;;;;;0.70;0.70;;;3.00;99.90;;;;;;4982430;28;20070;-84
2023/01/19 05:31:03;;;;;;;0.70;0.70;;;2.00;99.90;;;;;;4963935;28;20054;-80
2023/01/19 05:33:28;;;;;;;0.60;0.60;;;2.10;99.90;;;;;;4989698;28;20041;-84
2023/01/19 05:35:54;;;;;;;0.70;0.70;;;2.10;99.90;;;;;;4993748;28;20038;-82
2023/01/19 05:38:21;;;;;;;0.70;0.70;;;2.20;99.90;;;;;;4974496;28;20046;-83
2023/01/19 05:40:47;;;;;;;0.50;0.50;;;2.20;99.90;;;;;;4982861;28;20039;-82
2023/01/19 05:43:13;;;;;;;0.70;0.70;;;2.20;99.90;;;;;;4983883;28;20048;-82
2023/01/19 05:45:39;;;;;;;0.40;0.40;;;2.20;99.90;;;;;;4986209;28;20046;-84
2023/01/19 05:48:09;;;;;;;0.60;0.60;;;2.20;99.90;;;;;;4992495;28;20137;-82
2023/01/19 05:50:34;;;;;;;0.50;0.50;;;2.30;99.90;;;;;;5005256;28;20088;-82
2023/01/19 05:53:01;;;;;;;0.60;0.60;;;2.40;99.90;;;;;;4993674;28;20074;-84
2023/01/19 05:55:28;;;;;;;0.60;0.60;;;2.40;99.90;;;;;;4972445;28;20555;-81
2023/01/19 05:57:54;;;;;;;0.60;0.60;;;2.40;99.90;;;;;;5000550;28;20471;-83
2023/01/19 06:00:20;;;;;;;0.70;0.70;;;3.50;99.90;;;;;;4986151;28;20061;-82
2023/01/19 06:02:48;;;;;;;;;;;2.50;99.90;;;;;;4988080;28;20058;-82
2023/01/19 06:05:14;;;;;;;0.57;0.57;;;2.50;99.90;;;;;;4986684;28;19917;-82
2023/01/19 06:07:40;;;;;;;0.57;0.57;;;2.50;99.90;;;;;;4987563;28;20081;-81
2023/01/19 06:10:06;;;;;;;0.65;0.65;;;2.60;99.90;;;;;;4988342;28;20504;-82
2023/01/19 06:12:32;;;;;;;0.70;0.70;;;2.60;99.90;;;;;;4983937;28;20058;-82
2023/01/19 06:14:58;;;;;;;0.60;0.60;;;2.60;99.90;;;;;;4986532;28;20062;-81
2023/01/19 06:17:23;;;;;;;0.70;0.70;;;2.60;99.90;;;;;;4966849;28;20043;-84
2023/01/19 06:19:49;;;;;;;0.60;0.60;;;2.60;99.90;;;;;;4984497;28;20046;-82
2023/01/19 06:22:15;;;;;;;0.50;0.50;;;2.70;99.90;;;;;;4987929;28;20034;-81
2023/01/19 06:24:40;;;;;;;0.63;0.63;;;2.70;99.90;;;;;;4986514;28;20042;-83
2023/01/19 06:27:06;;;;;;;0.60;0.60;;;2.80;99.90;;;;;;4982970;28;20085;-83
2023/01/19 06:29:32;;;;;;;0.57;0.57;;;3.60;99.90;;;;;;4985220;28;20093;-83
2023/01/19 06:31:58;;;;;;;0.63;0.63;;;2.80;99.90;;;;;;4993445;28;20089;-83
2023/01/19 06:34:27;;;;;;;0.55;0.55;;;3.50;99.90;;;;;;4991440;28;20121;-81
2023/01/19 06:36:54;;;;;;;0.50;0.50;;;2.90;99.90;;;;;;4985722;28;20038;-83
2023/01/19 06:39:20;;;;;;;0.50;0.50;;;2.80;99.90;;;;;;5001767;28;20058;-80
2023/01/19 06:41:46;;;;;;;0.60;0.60;;;2.80;99.90;;;;;;4987920;28;20125;-81
2023/01/19 06:44:12;;;;;;;0.63;0.63;;;2.80;99.90;;;;;;4986923;28;20994;-83
2023/01/19 06:46:37;;;;;;;0.70;0.70;;;2.70;99.90;;;;;;4970424;28;20121;-81
2023/01/19 06:49:03;;;;;;;0.68;0.68;;;3.40;99.90;;;;;;4987057;28;20093;-84
2023/01/19 06:51:29;;;;;;;0.80;0.80;;;3.70;99.90;;;;;;4989121;28;20038;-81
2023/01/19 06:53:55;;;;;;;0.60;0.60;;;2.60;99.90;;;;;;4988118;28;22002;-81
2023/01/19 06:56:20;;;;;;;0.60;0.60;;;2.90;99.90;;;;;;4991688;28;20121;-81
2023/01/19 06:58:47;;;;;;;0.63;0.63;;;2.50;99.90;;;;;;4987921;28;20038;-81
2023/01/19 07:01:13;;;;;;;0.80;0.80;;;2.50;99.90;;;;;;4986329;28;20074;-81
2023/01/19 07:03:38;;;;;;;0.60;0.60;;;2.50;99.90;;;;;;4984301;28;20077;-84
2023/01/19 07:06:07;;;;;;;0.70;0.70;;;2.50;99.90;;;;;;4987458;28;20072;-83
2023/01/19 07:08:34;;;;;;;0.60;0.60;;;2.60;99.90;;;;;;4984880;28;20038;-80
2023/01/19 07:11:06;;;;;;;0.70;0.70;;;3.00;99.90;;;;;;4985568;28;20078;-82
2023/01/19 07:13:36;;;;;;;0.60;0.60;;;2.90;99.90;;;;;;4983793;28;20038;-82
2023/01/19 07:16:06;;;;;;;0.60;0.60;;;2.60;99.90;;;;;;4987502;28;20042;-82
2023/01/19 07:18:32;;;;;;;0.52;0.52;;;2.60;99.90;;;;;;4983811;28;20074;-82
2023/01/19 07:20:58;;;;;;;0.65;0.65;;;2.60;99.90;;;;;;4985171;28;20489;-83
2023/01/19 07:23:24;;;;;;;0.70;0.70;;;2.70;99.90;;;;;;4986353;28;20476;-82
2023/01/19 07:25:49;;;;;;;0.60;0.60;;;2.70;99.90;;;;;;4983263;28;20046;-81
2023/01/19 07:28:16;;;;;;;0.60;0.60;;;2.80;99.90;;;;;;4986919;28;20420;-83
2023/01/19 07:30:42;;;;;;;;;;;2.80;99.90;;;;;;4988846;28;20117;-83
2023/01/19 07:33:08;;;;;;;0.60;0.60;;;2.80;99.90;;;;;;4988798;28;19918;-83
2023/01/19 07:35:34;;;;;;;;;;;2.90;99.90;;;;;;4991719;28;20042;-82
2023/01/19 07:37:59;;;;;;;0.70;0.70;;;2.90;99.90;;;;;;4974325;28;20004;-81
2023/01/19 07:40:27;;;;;;;0.70;0.70;;;3.00;99.90;;;;;;4985875;28;20754;-79
2023/01/19 07:42:52;;;;;;;0.60;0.60;;;3.40;99.90;;;;;;4992346;28;20069;-81
2023/01/19 07:45:19;;;;;;;0.73;0.73;;;3.00;99.90;;;;;;4989917;28;20046;-83
2023/01/19 07:47:50;;;;;;;0.60;0.60;;;3.10;99.90;;;;;;4985264;28;20721;-80
2023/01/19 07:50:20;;;;;;;0.70;0.70;;;3.20;99.90;;;;;;4984541;28;20085;-81
2023/01/19 07:52:46;;;;;;;0.70;0.70;;;3.20;99.90;;;;;;4987695;28;20061;-80
2023/01/19 07:55:11;;;;;;;;;;;3.20;99.90;;;;;;4989885;28;20062;-80
2023/01/19 07:57:37;;;;;;;0.60;0.60;;;3.20;99.90;;;;;;4986658;28;19954;-82
2023/01/19 08:00:03;;;;;;;0.65;0.65;;;3.50;99.90;;;;;;4973718;28;20043;-83
2023/01/19 08:02:30;;;;;;;0.60;0.60;;;3.30;99.90;;;;;;4989083;28;20066;-82
2023/01/19 08:04:56;;;;;;;0.60;0.60;;;3.30;99.90;;;;;;4992292;28;20065;-79
2023/01/19 08:07:22;;;;;;;0.65;0.65;;;3.60;99.90;;;;;;4985524;28;20141;-79
2023/01/19 08:09:47;;;;;;;0.60;0.60;;;3.40;99.90;;;;;;4971574;28;20492;-82
2023/01/19 08:12:13;;;;;;;0.50;0.50;;;3.50;99.90;;;;;;4974462;28;20042;-79
2023/01/19 08:14:39;;;;;;;0.50;0.50;;;3.40;99.90;;;;;;4972919;28;20066;-81
2023/01/19 08:17:04;;;;;;;0.60;0.60;;;3.40;99.90;;;;;;4994626;28;20499;-82
2023/01/19 08:19:30;;;;;;;0.70;0.70;;;3.50;99.90;;;;;;4992715;28;20516;-80
2023/01/19 08:21:57;;;;;;;0.70;0.70;;;3.50;99.90;;;;;;4988933;28;20070;-82
2023/01/19 08:24:27;;;;;;;0.57;0.57;;;3.60;99.90;;;;;;4992262;28;20372;-79
2023/01/19 08:27:02;;;;;;;0.68;0.68;;;3.50;99.90;;;;;;4988218;28;20043;-82
2023/01/19 08:29:32;;;;;;;0.50;0.50;;;3.60;99.90;;;;;;4987513;28;20056;-82
2023/01/19 08:32:00;;;;;;;0.50;0.50;;;3.60;99.90;;;;;;4984083;28;20034;-80
2023/01/19 08:34:26;;;;;;;0.70;0.70;;;3.60;99.90;;;;;;4989996;28;20163;-78
2023/01/19 08:36:52;;;;;;;0.55;0.55;;;3.60;99.90;;;;;;4996988;28;20039;-81
2023/01/19 08:39:17;;;;;;;0.50;0.50;;;3.60;99.90;;;;;;4995160;28;20124;-81
2023/01/19 08:41:44;;;;;;;0.70;0.70;;;3.70;99.90;;;;;;4991262;28;20388;-79
2023/01/19 08:44:09;;;;;;;0.60;0.60;;;3.70;99.90;;;;;;4987206;28;20046;-82
2023/01/19 08:46:35;;;;;;;0.60;0.60;;;3.90;99.90;;;;;;4988630;28;20046;-81
2023/01/19 08:49:01;;;;;;;0.60;0.60;;;3.80;99.90;;;;;;4986646;28;20053;-79
2023/01/19 08:51:27;;;;;;;0.60;0.60;;;4.00;99.90;;;;;;4991798;28;20401;-80
2023/01/19 08:53:52;;;;;;;0.60;0.60;;;3.90;99.90;;;;;;4982371;28;20141;-81
2023/01/19 08:56:18;;;;;;;0.70;0.70;;;4.00;99.90;;;;;;4991953;28;20122;-79
2023/01/19 08:58:44;;;;;;;0.60;0.60;;;4.10;99.90;;;;;;4985162;28;20126;-79
2023/01/19 09:01:15;;;;;;;0.60;0.60;;;4.20;99.90;;;;;;4971604;28;20050;-81
2023/01/19 09:03:42;;;;;;;0.55;0.55;;;4.00;99.90;;;;;;4999326;28;20125;-79
2023/01/19 09:06:11;;;;;;;0.60;0.60;;;4.00;99.90;;;;;;4992508;28;20054;-79
2023/01/19 09:08:37;;;;;;;0.65;0.65;;;4.00;99.90;;;;;;4973215;28;20049;-78
2023/01/19 09:11:04;;;;;;;;;;;3.90;99.90;;;;;;4987273;28;20050;-80
2023/01/19 09:13:29;;;;;;;0.90;0.90;;;3.90;99.90;;;;;;4987855;28;21483;-82
2023/01/19 09:15:55;;;;;;;0.47;0.47;;;4.20;99.90;;;;;;4988890;28;20037;-82
2023/01/19 09:18:21;;;;;;;0.50;0.50;;;3.90;99.90;;;;;;4989229;28;20054;-79
2023/01/19 09:20:49;;;;;;;0.70;0.70;;;3.70;99.90;;;;;;5005035;28;20041;-81
2023/01/19 09:23:17;;;;;;;0.60;0.60;;;3.70;99.90;;;;;;4988331;28;20181;-82
2023/01/19 09:25:44;;;;;;;0.55;0.55;;;3.60;99.90;;;;;;4987685;28;20103;-79
2023/01/19 09:28:11;;;;;;;0.68;0.68;;;3.60;99.90;;;;;;4987732;28;20182;-82
2023/01/19 09:30:39;;;;;;;0.50;0.50;;;3.50;99.90;;;;;;4986984;28;20101;-79
2023/01/19 09:33:10;;;;;;;0.60;0.60;;;3.40;99.90;;;;;;4972778;28;20046;-82
2023/01/19 09:35:37;;;;;;;0.57;0.57;;;3.30;99.90;;;;;;4985487;28;20060;-79
2023/01/19 09:38:03;;;;;;;0.70;0.70;;;3.30;99.90;;;;;;4988246;28;20744;-81
2023/01/19 09:40:48;;;;;;;0.60;0.60;;;3.20;99.90;;;;;;4984160;28;20673;-81
2023/01/19 09:43:32;;;;;;;0.70;0.70;;;3.20;99.90;;;;;;4984754;28;20058;-79
2023/01/19 09:46:01;;;;;;;0.63;0.63;;;3.20;99.90;;;;;;4986547;28;20376;-79
2023/01/19 09:48:45;;;;;;;0.60;0.60;;;3.20;99.90;;;;;;4986119;28;20049;-78
2023/01/19 09:51:18;;;;;;;0.60;0.60;;;3.30;99.90;;;;;;4980373;28;20407;-77
2023/01/19 09:54:10;;;;;;;0.70;0.70;;;3.30;99.90;;;;;;4980336;28;20034;-80
2023/01/19 09:56:37;;;;;;;0.63;0.63;;;3.50;99.90;;;;;;4980577;28;20057;-79
2023/01/19 09:59:17;;;;;;;0.60;0.60;;;3.70;99.90;;;;;;4981191;28;20046;-79
2023/01/19 10:01:54;;;;;;;0.70;0.70;;;3.60;99.90;;;;;;4982254;28;20185;-77
2023/01/19 10:04:34;;;;;;;0.60;0.60;;;3.70;99.90;;;;;;4969358;28;20520;-80
2023/01/19 10:07:07;;;;;;;0.70;0.70;;;3.80;99.90;;;;;;5000633;28;20043;-80
2023/01/19 10:09:38;;;;;;;0.50;0.50;;;3.90;99.90;;;;;;4990594;28;20046;-79
2023/01/19 10:12:15;;;;;;;0.57;0.57;;;3.80;99.90;;;;;;4986749;28;20085;-78
2023/01/19 10:15:02;;;;;;;0.57;0.57;;;3.80;99.90;;;;;;4988558;28;20522;-80
2023/01/19 10:17:55;;;;;;;0.60;0.60;;;3.90;99.90;;;;;;4989517;28;20046;-81
2023/01/19 10:20:32;;;;;;;0.50;0.50;;;4.00;99.90;;;;;;4967701;28;20809;-76
2023/01/19 10:22:58;;;;;;;;;;;4.20;99.90;;;;;;4975063;28;20042;-76
2023/01/19 10:25:24;;;;;;;0.55;0.55;;;4.10;99.90;;;;;;4994041;28;19988;-78
2023/01/19 10:27:50;;;;;;;0.70;0.70;;;4.10;99.90;;;;;;4968262;28;20046;-79
2023/01/19 10:30:23;;;;;;;;;;;4.20;99.90;;;;;;4953335;28;20050;-80
2023/01/19 10:32:50;;;;;;;1.42;1.42;;;4.20;99.90;;;;;;4981362;28;20360;-80
2023/01/19 10:35:24;;;;;;;0.70;0.70;;;4.20;99.90;;;;;;4966271;28;20394;-78
2023/01/19 10:37:58;;;;;;;0.38;0.38;;;4.30;99.90;;;;;;4987871;28;20046;-81
2023/01/19 10:40:26;;;;;;;0.70;0.70;;;4.30;99.90;;;;;;4992559;28;20038;-80
2023/01/19 10:42:53;;;;;;;0.60;0.60;;;4.30;99.90;;;;;;4985434;28;20045;-82
2023/01/19 10:45:23;;;;;;;;;;;4.40;99.90;;;;;;4985779;28;20101;-81
2023/01/19 10:47:49;;;;;;;0.55;0.55;;;4.40;99.90;;;;;;4969644;28;19962;-81
2023/01/19 10:50:26;;;;;;;;;;;4.50;99.90;;;;;;4972180;28;20050;-78
2023/01/19 10:52:55;;;;;;;0.50;0.50;;;4.50;99.90;;;;;;4999763;28;19925;-81
2023/01/19 10:55:26;;;;;;;0.70;0.70;;;4.50;99.90;;;;;;4985304;28;20301;-80
2023/01/19 10:57:52;;;;;;;0.50;0.50;;;4.50;99.90;;;;;;4982615;28;20101;-81
2023/01/19 11:00:36;;;;;;;0.50;0.50;;;4.60;99.90;;;;;;4986386;28;20058;-79
2023/01/19 11:03:22;;;;;;;0.60;0.60;;;4.60;99.90;;;;;;4982362;28;20046;-81
2023/01/19 11:05:49;;;;;;;0.70;0.70;;;4.70;99.90;;;;;;4982857;28;20044;-78
2023/01/19 11:08:26;;;;;;;0.60;0.60;;;4.70;99.90;;;;;;5006674;28;20073;-81
2023/01/19 11:11:01;;;;;;;0.50;0.50;;;4.80;99.90;;;;;;4994339;28;20046;-79
2023/01/19 11:13:27;;;;;;;0.60;0.60;;;4.80;99.90;;;;;;4983293;28;20795;-80
2023/01/19 11:15:56;;;;;;;;;;;4.80;99.90;;;;;;4988677;28;20112;-78
2023/01/19 11:18:30;;;;;;;0.68;0.68;;;4.80;99.90;;;;;;4991037;28;19992;-80
2023/01/19 11:21:06;;;;;;;0.60;0.60;;;4.80;99.90;;;;;;4992264;28;20046;-79
2023/01/19 11:23:41;;;;;;;0.50;0.50;;;4.80;99.90;;;;;;4988673;28;20038;-78
2023/01/19 11:26:14;;;;;;;1.00;1.00;;;4.80;99.90;;;;;;4990577;28;20046;-80
2023/01/19 11:28:46;;;;;;;0.47;0.47;;;4.80;99.90;;;;;;4989723;28;20129;-80
2023/01/19 11:31:16;;;;;;;0.50;0.50;;;4.90;99.90;;;;;;4991382;28;20086;-81
2023/01/19 11:33:54;;;;;;;0.52;0.52;;;4.90;99.90;;;;;;4992429;28;20109;-78
2023/01/19 11:36:22;;;;;;;0.60;0.60;;;5.10;99.90;;;;;;4993590;28;20089;-79
2023/01/19 11:38:53;;;;;;;0.60;0.60;;;5.20;99.90;;;;;;4973364;28;20038;-78
2023/01/19 11:41:41;;;;;;;0.57;0.57;;;5.30;99.90;;;;;;4981463;28;20652;-80
2023/01/19 11:44:38;;;;;;;0.50;0.50;;;5.40;99.90;;;;;;4986607;28;20476;-79
2023/01/19 11:47:22;;;;;;;0.55;0.55;;;5.50;99.90;;;;;;4987221;28;20104;-79
2023/01/19 11:50:05;;;;;;;0.40;0.40;;;5.60;99.90;;;;;;4988174;28;20046;-78
2023/01/19 11:52:49;;;;;;;0.57;0.57;;;5.70;99.90;;;;;;4989068;28;20058;-78
2023/01/19 11:55:45;;;;;;;0.60;0.60;;;5.60;99.90;;;;;;5000752;28;20092;-78
2023/01/19 11:58:16;;;;;;;0.60;0.60;;;5.70;99.90;;;;;;4988652;28;20434;-78
2023/01/19 12:00:48;;;;;;;0.50;0.50;;;5.70;99.90;;;;;;4985129;28;20035;-78
2023/01/19 12:03:36;;;;;;;0.82;0.82;;;5.70;99.90;;;;;;4975667;28;20064;-80
2023/01/19 12:06:11;;;;;;;0.40;0.40;;;5.60;99.90;;;;;;4985887;28;20043;-81
2023/01/19 12:08:42;;;;;;;0.50;0.50;;;5.40;99.90;;;;;;4991951;28;20030;-82
2023/01/19 12:11:11;;;;;;;0.60;0.60;;;5.10;99.90;;;;;;4989044;28;20054;-78
2023/01/19 12:13:40;;;;;;;0.63;0.63;;;4.90;99.90;;;;;;4993577;28;20039;-80
2023/01/19 12:16:25;;;;;;;0.40;0.40;;;4.70;99.90;;;;;;4992497;28;20042;-78
2023/01/19 12:19:05;;;;;;;0.60;0.60;;;4.50;99.90;;;;;;4988756;28;20046;-79
2023/01/19 12:21:30;;;;;;;0.50;0.50;;;4.40;99.90;;;;;;4971622;28;20064;-82
2023/01/19 12:24:08;;;;;;;0.57;0.57;;;4.30;99.90;;;;;;4960021;28;20042;-85
2023/01/19 12:26:55;;;;;;;0.60;0.60;;;4.20;99.90;;;;;;4988101;28;20039;-86
2023/01/19 12:29:27;;;;;;;0.70;0.70;;;4.30;99.90;;;;;;4989110;28;20070;-85
2023/01/19 12:32:16;;;;;;;0.60;0.60;;;4.20;99.90;;;;;;4978223;28;20065;-84
2023/01/19 12:34:46;;;;;;;0.70;0.70;;;4.30;99.90;;;;;;4978481;28;20113;-85
2023/01/19 12:37:35;;;;;;;0.60;0.60;;;4.50;99.90;;;;;;4997873;28;20495;-83
2023/01/19 12:40:28;;;;;;;0.50;0.50;;;4.80;99.90;;;;;;4985560;28;20093;-84
2023/01/19 12:43:05;;;;;;;0.60;0.60;;;4.80;99.90;;;;;;4997636;28;20042;-86
2023/01/19 12:45:40;;;;;;;0.60;0.60;;;4.90;99.90;;;;;;4985587;28;20061;-86
2023/01/19 12:48:24;;;;;;;0.60;0.60;;;5.00;99.90;;;;;;4987948;28;20038;-83
2023/01/19 12:50:55;;;;;;;0.60;0.60;;;5.10;99.90;;;;;;4972858;28;20072;-83
2023/01/19 12:53:25;;;;;;;0.50;0.50;;;5.20;99.90;;;;;;4988010;28;20118;-82
2023/01/19 12:56:01;;;;;;;0.50;0.50;;;5.40;99.90;;;;;;4959819;28;20500;-86
2023/01/19 12:58:36;;;;;;;6.07;0.90;;;5.50;99.90;;;;;;5009076;28;20180;-83
2023/01/19 13:01:19;;;;;;;0.60;0.60;;;5.50;99.90;;;;;;4976568;28;20098;-84
2023/01/19 13:04:00;;;;;;;0.70;0.70;;;5.60;99.90;;;;;;4991851;28;20563;-83
2023/01/19 13:06:45;;;;;;;0.52;0.52;;;5.50;99.90;;;;;;4987842;28;20062;-86
2023/01/19 13:09:30;;;;;;;0.55;0.55;;;6.20;99.90;;;;;;4972213;28;20388;-85
2023/01/19 13:12:27;;;;;;;0.60;0.60;;;5.80;99.90;;;;;;4978800;28;20038;-86
2023/01/19 13:15:27;;;;;;;0.60;0.60;;;5.20;99.90;;;;;;4977614;28;20084;-85
2023/01/19 13:17:53;;;;;;;0.60;0.60;;;3.80;99.90;;;;;;4995136;28;20357;-85
2023/01/19 13:20:23;;;;;;;;;;;5.00;99.90;;;;;;4994122;28;20073;-84
2023/01/19 13:23:15;;;;;;;0.50;0.50;;;4.80;99.90;;;;;;5003933;28;19917;-86
2023/01/19 13:25:47;;;;;;;0.70;0.70;;;4.80;99.90;;;;;;4976020;28;20060;-84
2023/01/19 13:28:15;;;;;;;0.50;0.50;;;4.70;99.90;;;;;;4991401;28;20061;-83
2023/01/19 13:30:52;;;;;;;0.65;0.65;;;5.00;99.90;;;;;;5006148;28;20054;-86
2023/01/19 13:33:24;;;;;;;0.60;0.60;;;4.70;99.90;;;;;;4987866;28;20069;-84